Nicosia, Cyprus
Current Conditions -  °F | °C
As of 1:30 PM on Tuesday 21 Oct 2014 (Local Time) from LCLK Reporting Station
Few Clouds Few Clouds  
Wind Chill: 77°   Ceiling: Unl
Heat Index: 78°   Visibility: 6mi
Dew Point: 52°   Wind: 12mph
Humidity: 41%   Direction: 180°S
Pressure: 29.97"   Gusts: NA
Location:  34.88°N, 33.63°E
Report Text: LCLK 211030Z 18010KT 9999 FEW020 25/11 Q1015 NOSIG
Loading
Personal Weather Stations






























Interactive Weather Map
Tropical Storm Tracking
New forecast layout! Learn more

10-Day Weather Forecast

Advertisements
Track Severe Weather on mobile